createdAt,value
2019-03-08T00:00:47.908Z,59.03
2019-03-08T00:01:47.916Z,59.44
2019-03-08T00:02:47.886Z,59.64
2019-03-08T00:03:47.883Z,59.34
2019-03-08T00:04:47.886Z,59.75
2019-03-08T00:05:47.854Z,59.85
2019-03-08T00:06:47.871Z,59.44
2019-03-08T00:07:47.851Z,59.23
2019-03-08T00:08:47.855Z,60.05
2019-03-08T00:09:48.097Z,59.85
2019-03-08T00:10:47.817Z,59.57
2019-03-08T00:11:47.785Z,59.85
2019-03-08T00:12:47.817Z,60.36
2019-03-08T00:13:47.793Z,60.08
2019-03-08T00:14:47.815Z,59.85
2019-03-08T00:15:47.767Z,59.85
2019-03-08T00:16:47.737Z,60.16
2019-03-08T00:17:47.767Z,60.16
2019-03-08T00:18:47.718Z,60.57
2019-03-08T00:19:47.709Z,60.36
2019-03-08T00:20:47.710Z,60.57
2019-03-08T00:21:47.729Z,60.67
2019-03-08T00:22:47.662Z,60.88
2019-03-08T00:23:47.655Z,60.80
2019-03-08T00:24:47.647Z,60.98
2019-03-08T00:25:47.629Z,61.29
2019-03-08T00:26:47.659Z,61.08
2019-03-08T00:27:47.629Z,61.08
2019-03-08T00:28:47.620Z,61.39
2019-03-08T00:29:47.595Z,60.80
2019-03-08T00:30:47.590Z,61.32
2019-03-08T00:31:47.589Z,61.42
2019-03-08T00:32:47.569Z,61.29
2019-03-08T00:33:47.544Z,61.42
2019-03-08T00:34:47.535Z,61.21
2019-03-08T00:35:47.555Z,61.21
2019-03-08T00:36:47.535Z,61.42
2019-03-08T00:37:47.501Z,61.11
2019-03-08T00:38:47.493Z,61.32
2019-03-08T00:39:47.484Z,61.62
2019-03-08T00:40:47.492Z,61.52
2019-03-08T00:41:47.481Z,61.62
2019-03-08T00:42:47.446Z,61.42
2019-03-08T00:43:47.445Z,61.83
2019-03-08T00:44:47.430Z,61.21
2019-03-08T00:45:47.443Z,61.83
2019-03-08T00:46:47.411Z,61.32
2019-03-08T00:47:47.479Z,61.32
2019-03-08T00:48:47.381Z,61.42
2019-03-08T00:49:47.397Z,62.24
2019-03-08T00:50:47.395Z,62.04
2019-03-08T00:51:47.359Z,62.06
2019-03-08T00:52:47.350Z,61.93
2019-03-08T00:53:47.339Z,61.93
2019-03-08T00:54:47.322Z,61.93
2019-03-08T00:55:47.324Z,62.14
2019-03-08T00:56:47.311Z,61.93
2019-03-08T00:57:47.289Z,62.37
2019-03-08T00:58:47.904Z,62.68
2019-03-08T00:59:47.886Z,62.99
2019-03-08T01:00:47.289Z,62.58
2019-03-08T01:01:47.257Z,63.09
2019-03-08T01:02:47.237Z,62.99
2019-03-08T01:03:47.244Z,63.29
2019-03-08T01:04:47.241Z,63.81
2019-03-08T01:05:47.222Z,63.60
2019-03-08T01:06:47.197Z,63.60
2019-03-08T01:07:47.198Z,63.12
2019-03-08T01:08:47.203Z,64.32
2019-03-08T01:09:47.190Z,64.15
2019-03-08T01:10:47.153Z,63.50
2019-03-08T01:11:47.177Z,63.60
2019-03-08T01:12:47.146Z,64.36
2019-03-08T01:13:47.135Z,64.12
2019-03-08T01:14:47.114Z,64.66
2019-03-08T01:15:47.103Z,64.76
2019-03-08T01:16:47.107Z,64.97
2019-03-08T01:17:47.076Z,65.17
2019-03-08T01:18:47.089Z,65.28
2019-03-08T01:19:47.049Z,65.08
2019-03-08T01:20:47.062Z,65.69
2019-03-08T01:21:47.484Z,65.48
2019-03-08T01:22:47.048Z,65.08
2019-03-08T01:23:47.011Z,65.08
2019-03-08T01:24:47.047Z,65.28
2019-03-08T01:25:46.990Z,65.17
2019-03-08T01:26:47.025Z,64.97
2019-03-08T01:27:46.969Z,64.97
2019-03-08T01:28:46.959Z,65.38
2019-03-08T01:29:46.987Z,65.38
2019-03-08T01:30:46.943Z,65.48
2019-03-08T01:31:46.947Z,65.38
2019-03-08T01:32:46.911Z,65.38
2019-03-08T01:33:46.904Z,65.38
2019-03-08T01:34:46.892Z,65.17
2019-03-08T01:35:46.885Z,65.17
2019-03-08T01:36:46.912Z,65.08
2019-03-08T01:37:46.869Z,64.97
2019-03-08T01:38:46.849Z,64.97
2019-03-08T01:39:46.878Z,65.38
2019-03-08T01:40:46.859Z,65.28
2019-03-08T01:41:46.837Z,65.38
2019-03-08T01:42:46.819Z,65.28
2019-03-08T01:43:46.801Z,65.38
2019-03-08T01:44:46.793Z,65.08
2019-03-08T01:45:46.793Z,65.28
2019-03-08T01:46:46.781Z,65.48
2019-03-08T01:47:46.771Z,65.17
2019-03-08T01:48:46.748Z,65.45
2019-03-08T01:49:46.730Z,64.66
2019-03-08T01:50:46.741Z,65.14
2019-03-08T01:51:46.711Z,64.94
2019-03-08T01:52:46.718Z,65.69
2019-03-08T01:53:46.703Z,65.48
2019-03-08T01:54:46.695Z,65.28
2019-03-08T01:55:46.671Z,65.17
2019-03-08T01:56:46.683Z,64.76
2019-03-08T01:57:46.669Z,64.87
2019-03-08T01:58:46.637Z,64.97
2019-03-08T01:59:46.625Z,65.08
2019-03-08T02:00:46.633Z,65.28
2019-03-08T02:01:46.605Z,65.28
2019-03-08T02:02:46.617Z,65.35
2019-03-08T02:03:46.587Z,64.97
2019-03-08T02:04:46.575Z,65.17
2019-03-08T02:05:46.565Z,65.08
2019-03-08T02:06:46.559Z,64.87
2019-03-08T02:07:46.581Z,65.17
2019-03-08T02:08:46.540Z,65.17
2019-03-08T02:09:46.517Z,65.38
2019-03-08T02:10:46.513Z,65.17
2019-03-08T02:11:46.502Z,65.48
2019-03-08T02:12:46.516Z,65.38
2019-03-08T02:13:46.486Z,65.17
2019-03-08T02:14:46.466Z,65.28
2019-03-08T02:15:46.459Z,65.28
2019-03-08T02:16:46.454Z,65.28
2019-03-08T02:17:46.458Z,65.17
2019-03-08T02:18:46.451Z,65.08
2019-03-08T02:19:46.417Z,65.17
2019-03-08T02:20:46.410Z,64.97
2019-03-08T02:21:46.392Z,65.28
2019-03-08T02:22:46.402Z,65.28
2019-03-08T02:23:46.395Z,65.08
2019-03-08T02:24:46.361Z,65.38
2019-03-08T02:25:46.355Z,65.28
2019-03-08T02:26:46.343Z,65.38
2019-03-08T02:27:46.365Z,65.48
2019-03-08T02:28:46.326Z,65.38
2019-03-08T02:29:46.303Z,65.38
2019-03-08T02:30:46.344Z,65.08
2019-03-08T02:31:46.329Z,65.69
2019-03-08T02:32:46.297Z,65.59
2019-03-08T02:33:46.274Z,65.08
2019-03-08T02:34:46.256Z,65.69
2019-03-08T02:35:46.239Z,65.80
2019-03-08T02:36:46.252Z,65.48
2019-03-08T02:37:46.303Z,65.38
2019-03-08T02:38:46.209Z,65.28
2019-03-08T02:39:46.197Z,65.08
2019-03-08T02:40:46.192Z,65.48
2019-03-08T02:41:46.178Z,65.28
2019-03-08T02:42:46.174Z,65.48
2019-03-08T02:43:46.216Z,65.38
2019-03-08T02:44:46.146Z,65.38
2019-03-08T02:45:46.144Z,65.28
2019-03-08T02:46:46.131Z,65.38
2019-03-08T02:47:46.125Z,65.08
2019-03-08T02:48:46.119Z,65.28
2019-03-08T02:49:46.094Z,65.38
2019-03-08T02:50:46.090Z,65.17
2019-03-08T02:51:54.990Z,64.76
2019-03-08T02:52:46.061Z,65.17
2019-03-08T02:53:46.071Z,65.08
2019-03-08T02:54:46.047Z,64.66
2019-03-08T02:55:46.034Z,65.17
2019-03-08T02:56:46.016Z,65.17
2019-03-08T02:57:46.021Z,64.97
2019-03-08T02:58:46.013Z,64.87
2019-03-08T02:59:46.019Z,64.66
2019-03-08T03:00:45.979Z,64.97
2019-03-08T03:01:45.961Z,64.87
2019-03-08T03:02:45.953Z,64.66
2019-03-08T03:03:46.021Z,64.87
2019-03-08T03:04:45.934Z,64.36
2019-03-08T03:05:45.927Z,63.84
2019-03-08T03:06:45.913Z,63.64
2019-03-08T03:07:45.907Z,64.25
2019-03-08T03:08:45.907Z,63.74
2019-03-08T03:09:45.908Z,63.74
2019-03-08T03:10:45.867Z,64.15
2019-03-08T03:11:45.859Z,63.40
2019-03-08T03:12:45.857Z,63.50
2019-03-08T03:13:45.854Z,63.91
2019-03-08T03:14:45.849Z,63.09
2019-03-08T03:15:45.818Z,62.58
2019-03-08T03:16:45.823Z,62.78
2019-03-08T03:17:45.790Z,62.48
2019-03-08T03:18:45.803Z,63.06
2019-03-08T03:19:45.778Z,62.48
2019-03-08T03:20:45.783Z,62.88
2019-03-08T03:21:45.761Z,62.78
2019-03-08T03:22:45.745Z,62.68
2019-03-08T03:23:45.764Z,62.68
2019-03-08T03:24:45.721Z,62.48
2019-03-08T03:25:45.712Z,62.88
2019-03-08T03:26:45.711Z,62.58
2019-03-08T03:27:45.698Z,62.58
2019-03-08T03:28:45.747Z,62.78
2019-03-08T03:29:45.713Z,63.29
2019-03-08T03:30:45.659Z,62.78
2019-03-08T03:31:47.001Z,62.88
2019-03-08T03:32:45.652Z,62.48
2019-03-08T03:33:45.671Z,62.48
2019-03-08T03:34:45.620Z,62.48
2019-03-08T03:35:45.598Z,62.16
2019-03-08T03:36:45.598Z,61.86
2019-03-08T03:37:45.581Z,62.58
2019-03-08T03:38:45.621Z,62.58
2019-03-08T03:39:45.639Z,62.78
2019-03-08T03:40:45.564Z,62.58
2019-03-08T03:41:45.569Z,62.37
2019-03-08T03:42:45.533Z,62.48
2019-03-08T03:43:45.531Z,62.78
2019-03-08T03:44:45.534Z,62.58
2019-03-08T03:45:45.498Z,62.37
2019-03-08T03:46:45.506Z,62.99
2019-03-08T03:47:45.476Z,62.99
2019-03-08T03:48:45.499Z,62.48
2019-03-08T03:49:45.549Z,62.58
2019-03-08T03:50:45.536Z,61.65
2019-03-08T03:51:45.435Z,61.55
2019-03-08T03:52:45.498Z,62.16
2019-03-08T03:53:45.419Z,62.16
2019-03-08T03:54:53.803Z,61.96
2019-03-08T03:55:54.629Z,61.42
2019-03-08T03:56:54.672Z,61.21
2019-03-08T03:57:54.659Z,61.21
2019-03-08T03:58:54.675Z,61.00
2019-03-08T03:59:53.700Z,60.80
2019-03-08T04:00:56.248Z,60.91
2019-03-08T04:01:54.269Z,60.91
2019-03-08T04:02:45.324Z,60.80
2019-03-08T04:03:45.435Z,60.80
2019-03-08T04:04:45.335Z,60.80
2019-03-08T04:05:45.305Z,60.49
2019-03-08T04:06:45.300Z,60.80
2019-03-08T04:07:45.303Z,60.39
2019-03-08T04:08:45.298Z,60.60
2019-03-08T04:09:45.326Z,59.88
2019-03-08T04:10:45.234Z,59.67
2019-03-08T04:11:45.220Z,59.67
2019-03-08T04:12:45.222Z,59.77
2019-03-08T04:13:45.195Z,59.88
2019-03-08T04:14:45.208Z,59.77
2019-03-08T04:15:45.172Z,59.26
2019-03-08T04:16:45.169Z,59.88
2019-03-08T04:17:45.154Z,59.16
2019-03-08T04:18:45.164Z,59.88
2019-03-08T04:19:45.162Z,59.67
2019-03-08T04:20:45.126Z,59.57
2019-03-08T04:21:45.120Z,59.77
2019-03-08T04:22:45.099Z,59.47
2019-03-08T04:23:45.092Z,59.67
2019-03-08T04:24:45.084Z,59.47
2019-03-08T04:25:45.115Z,59.47
2019-03-08T04:26:45.056Z,59.16
2019-03-08T04:27:45.095Z,59.03
2019-03-08T04:28:45.032Z,59.34
2019-03-08T04:29:45.034Z,58.83
2019-03-08T04:30:45.032Z,59.23
2019-03-08T04:31:45.014Z,58.95
2019-03-08T04:32:44.995Z,58.72
2019-03-08T04:33:44.983Z,59.03
2019-03-08T04:34:44.968Z,58.92
2019-03-08T04:35:44.988Z,58.83
2019-03-08T04:36:44.954Z,59.44
2019-03-08T04:37:44.940Z,59.23
2019-03-08T04:38:44.926Z,58.51
2019-03-08T04:39:44.922Z,59.34
2019-03-08T04:40:44.977Z,58.92
2019-03-08T04:41:44.898Z,59.03
2019-03-08T04:42:44.887Z,58.92
2019-03-08T04:43:44.881Z,58.92
2019-03-08T04:44:44.863Z,58.62
2019-03-08T04:45:44.871Z,58.31
2019-03-08T04:46:44.849Z,58.83
2019-03-08T04:47:44.847Z,58.18
2019-03-08T04:48:44.826Z,58.49
2019-03-08T04:49:44.805Z,58.51
2019-03-08T04:50:44.834Z,58.39
2019-03-08T04:51:44.817Z,59.00
2019-03-08T04:52:44.788Z,58.07
2019-03-08T04:53:44.786Z,58.59
2019-03-08T04:54:53.816Z,58.18
2019-03-08T04:55:44.789Z,58.07
2019-03-08T04:56:44.738Z,58.18
2019-03-08T04:57:44.735Z,58.49
2019-03-08T04:58:44.729Z,58.51
2019-03-08T04:59:44.722Z,58.39
2019-03-08T05:00:44.702Z,58.07
2019-03-08T05:01:44.707Z,58.39
2019-03-08T05:02:44.672Z,58.07
2019-03-08T05:03:53.852Z,58.49
2019-03-08T05:04:53.886Z,58.39
2019-03-08T05:05:44.651Z,58.28
2019-03-08T05:06:44.664Z,58.59
2019-03-08T05:07:44.614Z,58.49
2019-03-08T05:08:45.847Z,58.39
2019-03-08T05:09:44.600Z,58.49
2019-03-08T05:10:44.601Z,58.69
2019-03-08T05:11:44.596Z,58.69
2019-03-08T05:12:44.595Z,58.59
2019-03-08T05:13:44.550Z,58.59
2019-03-08T05:14:44.542Z,58.59
2019-03-08T05:15:44.534Z,58.07
2019-03-08T05:16:44.613Z,58.49
2019-03-08T05:17:44.519Z,58.39
2019-03-08T05:18:44.500Z,58.49
2019-03-08T05:19:44.496Z,58.49
2019-03-08T05:20:44.478Z,58.28
2019-03-08T05:21:44.490Z,58.39
2019-03-08T05:22:44.460Z,58.28
2019-03-08T05:23:44.456Z,58.80
2019-03-08T05:24:44.438Z,58.69
2019-03-08T05:25:44.424Z,58.49
2019-03-08T05:26:44.446Z,58.28
2019-03-08T05:27:44.410Z,58.28
2019-03-08T05:28:44.400Z,58.69
2019-03-08T05:29:44.399Z,58.49
2019-03-08T05:30:44.373Z,58.49
2019-03-08T05:31:44.376Z,58.69
2019-03-08T05:32:44.384Z,58.07
2019-03-08T05:33:44.340Z,58.07
2019-03-08T05:34:44.325Z,57.98
2019-03-08T05:35:44.316Z,57.87
2019-03-08T05:36:44.335Z,57.87
2019-03-08T05:37:44.305Z,57.98
2019-03-08T05:38:44.289Z,58.07
2019-03-08T05:39:44.274Z,57.98
2019-03-08T05:40:44.298Z,57.98
2019-03-08T05:41:44.303Z,57.87
2019-03-08T05:42:44.257Z,57.95
2019-03-08T05:43:44.235Z,58.39
2019-03-08T05:44:44.234Z,58.39
2019-03-08T05:45:44.234Z,58.49
2019-03-08T05:46:44.236Z,57.98
2019-03-08T05:47:44.244Z,57.87
2019-03-08T05:48:44.176Z,57.98
2019-03-08T05:49:44.177Z,57.54
2019-03-08T05:50:44.160Z,57.56
2019-03-08T05:51:44.169Z,57.98
2019-03-08T05:52:44.156Z,57.77
2019-03-08T05:53:44.124Z,57.98
2019-03-08T05:54:44.116Z,58.05
2019-03-08T05:55:44.102Z,58.18
2019-03-08T05:56:44.096Z,57.64
2019-03-08T05:57:44.104Z,57.84
2019-03-08T05:58:44.068Z,57.87
2019-03-08T05:59:45.433Z,57.95
2019-03-08T06:00:44.052Z,57.98
2019-03-08T06:01:44.040Z,57.95
2019-03-08T06:02:44.077Z,58.05
2019-03-08T06:03:44.044Z,57.84
2019-03-08T06:04:44.052Z,57.95
2019-03-08T06:05:44.003Z,57.95
2019-03-08T06:06:43.988Z,57.84
2019-03-08T06:07:44.010Z,57.95
2019-03-08T06:08:43.976Z,58.39
2019-03-08T06:09:43.970Z,59.00
2019-03-08T06:10:43.942Z,58.49
2019-03-08T06:11:43.954Z,58.80
2019-03-08T06:12:43.946Z,58.05
2019-03-08T06:13:43.969Z,58.36
2019-03-08T06:14:43.920Z,58.67
2019-03-08T06:15:43.944Z,58.05
2019-03-08T06:16:43.926Z,58.36
2019-03-08T06:17:43.982Z,58.46
2019-03-08T06:18:43.869Z,58.05
2019-03-08T06:19:43.850Z,58.05
2019-03-08T06:20:43.852Z,58.67
2019-03-08T06:21:43.868Z,58.46
2019-03-08T06:22:43.860Z,58.97
2019-03-08T06:23:43.915Z,58.46
2019-03-08T06:24:43.807Z,59.08
2019-03-08T06:25:43.799Z,58.56
2019-03-08T06:26:43.814Z,58.26
2019-03-08T06:27:43.761Z,58.67
2019-03-08T06:28:43.774Z,58.26
2019-03-08T06:29:43.748Z,58.46
2019-03-08T06:30:43.759Z,58.36
2019-03-08T06:31:52.941Z,58.56
2019-03-08T06:32:52.567Z,58.56
2019-03-08T06:33:43.694Z,58.56
2019-03-08T06:34:43.691Z,58.36
2019-03-08T06:35:43.680Z,58.67
2019-03-08T06:36:43.667Z,58.46
2019-03-08T06:37:43.678Z,58.87
2019-03-08T06:38:43.721Z,58.77
2019-03-08T06:39:43.662Z,59.08
2019-03-08T06:40:43.672Z,59.08
2019-03-08T06:41:43.687Z,58.67
2019-03-08T06:42:43.644Z,59.18
2019-03-08T06:43:43.700Z,59.28
2019-03-08T06:44:43.589Z,59.18
2019-03-08T06:45:43.578Z,59.59
2019-03-08T06:46:43.557Z,59.59
2019-03-08T06:47:43.554Z,59.28
2019-03-08T06:48:43.578Z,59.89
2019-03-08T06:49:43.559Z,59.69
2019-03-08T06:50:43.541Z,59.48
2019-03-08T06:51:43.510Z,60.41
2019-03-08T06:52:43.541Z,60.72
2019-03-08T06:53:43.510Z,60.92
2019-03-08T06:54:43.476Z,60.72
2019-03-08T06:55:43.499Z,60.61
2019-03-08T06:56:43.480Z,61.33
2019-03-08T06:57:43.466Z,61.13
2019-03-08T06:58:43.458Z,61.13
2019-03-08T06:59:43.464Z,60.72
2019-03-08T07:00:43.422Z,60.72
2019-03-08T07:01:43.412Z,61.02
2019-03-08T07:02:43.399Z,60.72
2019-03-08T07:03:43.430Z,60.41
2019-03-08T07:04:43.387Z,60.51
2019-03-08T07:05:43.387Z,59.89
2019-03-08T07:06:43.348Z,59.56
2019-03-08T07:07:43.334Z,59.46
2019-03-08T07:08:43.339Z,59.38
2019-03-08T07:09:43.326Z,59.80
2019-03-08T07:10:43.309Z,59.66
2019-03-08T07:11:43.292Z,59.66
2019-03-08T07:12:43.320Z,59.66
2019-03-08T07:13:43.306Z,59.97
2019-03-08T07:14:43.273Z,59.66
2019-03-08T07:15:43.251Z,59.46
2019-03-08T07:16:43.244Z,59.66
2019-03-08T07:17:43.249Z,59.87
2019-03-08T07:18:43.253Z,59.77
2019-03-08T07:19:43.235Z,59.66
2019-03-08T07:20:43.197Z,59.36
2019-03-08T07:21:43.183Z,59.66
2019-03-08T07:22:43.205Z,59.46
2019-03-08T07:23:43.184Z,59.46
2019-03-08T07:24:43.183Z,59.84
2019-03-08T07:25:51.165Z,59.33
2019-03-08T07:26:44.142Z,59.43
2019-03-08T07:27:43.224Z,59.33
2019-03-08T07:28:43.108Z,59.64
2019-03-08T07:29:43.138Z,59.74
2019-03-08T07:30:43.111Z,59.53
2019-03-08T07:31:43.076Z,59.43
2019-03-08T07:32:43.067Z,59.43
2019-03-08T07:33:43.071Z,59.43
2019-03-08T07:34:43.082Z,59.23
2019-03-08T07:35:43.045Z,59.64
2019-03-08T07:36:43.053Z,59.84
2019-03-08T07:37:43.018Z,59.53
2019-03-08T07:38:43.005Z,59.33
2019-03-08T07:39:43.019Z,59.94
2019-03-08T07:40:43.003Z,60.38
2019-03-08T07:41:42.979Z,60.17
2019-03-08T07:42:44.990Z,60.25
2019-03-08T07:43:42.951Z,60.56
2019-03-08T07:44:42.980Z,60.28
2019-03-08T07:45:44.328Z,60.89
2019-03-08T07:46:42.927Z,60.76
2019-03-08T07:47:42.928Z,60.35
2019-03-08T07:48:42.904Z,60.79
2019-03-08T07:49:42.968Z,61.10
2019-03-08T07:50:42.921Z,61.20
2019-03-08T07:51:42.867Z,61.41
2019-03-08T07:52:42.862Z,61.20
2019-03-08T07:53:42.871Z,61.20
2019-03-08T07:54:42.870Z,60.97
2019-03-08T07:55:42.850Z,60.86
2019-03-08T07:56:42.829Z,60.86
2019-03-08T07:57:42.814Z,60.69
2019-03-08T07:58:42.811Z,60.76
2019-03-08T07:59:42.821Z,60.76
2019-03-08T08:00:42.855Z,60.56
2019-03-08T08:01:42.903Z,60.69
2019-03-08T08:02:42.808Z,61.07
2019-03-08T08:03:42.751Z,60.97
2019-03-08T08:04:42.868Z,60.86
2019-03-08T08:05:42.742Z,60.86
2019-03-08T08:06:42.714Z,61.18
2019-03-08T08:07:42.703Z,61.07
2019-03-08T08:08:51.163Z,61.18
2019-03-08T08:09:43.859Z,60.97
2019-03-08T08:10:42.699Z,60.46
2019-03-08T08:11:42.695Z,60.46
2019-03-08T08:12:42.674Z,61.07
2019-03-08T08:13:42.708Z,60.76
2019-03-08T08:14:42.675Z,61.38
2019-03-08T08:15:42.635Z,61.18
2019-03-08T08:16:42.632Z,61.61
2019-03-08T08:17:42.609Z,61.51
2019-03-08T08:18:42.589Z,61.38
2019-03-08T08:19:42.576Z,61.18
2019-03-08T08:20:42.609Z,61.18
2019-03-08T08:21:42.579Z,61.18
2019-03-08T08:22:42.564Z,61.58
2019-03-08T08:23:42.571Z,61.07
2019-03-08T08:24:42.603Z,61.27
2019-03-08T08:25:42.525Z,61.18
2019-03-08T08:26:42.493Z,61.18
2019-03-08T08:27:42.505Z,61.18
2019-03-08T08:28:49.676Z,61.48
2019-03-08T08:29:43.497Z,61.18
2019-03-08T08:30:42.479Z,60.94
2019-03-08T08:31:42.447Z,61.15
2019-03-08T08:32:42.439Z,61.27
2019-03-08T08:33:42.435Z,61.48
2019-03-08T08:34:42.405Z,61.18
2019-03-08T08:35:42.452Z,61.89
2019-03-08T08:36:42.389Z,61.99
2019-03-08T08:37:42.391Z,61.27
2019-03-08T08:38:42.368Z,61.89
2019-03-08T08:39:42.382Z,61.58
2019-03-08T08:40:42.386Z,62.40
2019-03-08T08:41:42.327Z,62.81
2019-03-08T08:42:42.332Z,62.19
2019-03-08T08:43:42.315Z,63.12
2019-03-08T08:44:42.305Z,62.92
2019-03-08T08:45:42.353Z,62.81
2019-03-08T08:46:42.288Z,62.19
2019-03-08T08:47:42.268Z,62.40
2019-03-08T08:48:42.253Z,62.40
2019-03-08T08:49:42.246Z,61.71
2019-03-08T08:50:42.259Z,61.71
2019-03-08T08:51:42.223Z,62.43
2019-03-08T08:52:42.216Z,62.33
2019-03-08T08:53:42.213Z,62.74
2019-03-08T08:54:42.189Z,62.43
2019-03-08T08:55:43.681Z,62.33
2019-03-08T08:56:42.227Z,62.43
2019-03-08T08:57:42.266Z,62.74
2019-03-08T08:58:42.174Z,62.43
2019-03-08T08:59:42.144Z,62.54
2019-03-08T09:00:42.130Z,62.30
2019-03-08T09:01:42.134Z,61.82
2019-03-08T09:02:42.103Z,61.58
2019-03-08T09:03:42.093Z,61.79
2019-03-08T09:04:42.103Z,61.48
2019-03-08T09:05:42.097Z,62.30
2019-03-08T09:06:42.104Z,61.79
2019-03-08T09:07:42.055Z,62.92
2019-03-08T09:08:42.043Z,62.40
2019-03-08T09:09:42.038Z,62.40
2019-03-08T09:10:42.028Z,62.19
2019-03-08T09:11:48.491Z,61.58
2019-03-08T09:12:42.997Z,62.40
2019-03-08T09:13:50.608Z,62.81
2019-03-08T09:14:42.003Z,63.20
2019-03-08T09:15:51.091Z,63.09
2019-03-08T09:16:42.067Z,62.68
2019-03-08T09:17:51.183Z,62.68
2019-03-08T09:18:41.941Z,63.50
2019-03-08T09:19:42.025Z,62.88
2019-03-08T09:20:41.914Z,62.27
2019-03-08T09:21:41.921Z,62.68
2019-03-08T09:22:41.935Z,62.68
2019-03-08T09:23:41.885Z,62.88
2019-03-08T09:24:41.898Z,63.53
2019-03-08T09:25:41.863Z,63.32
2019-03-08T09:26:41.871Z,64.65
2019-03-08T09:27:41.845Z,64.76
2019-03-08T09:28:41.866Z,64.97
2019-03-08T09:29:41.818Z,66.12
2019-03-08T09:30:41.811Z,67.25
2019-03-08T09:31:41.797Z,68.38
2019-03-08T09:32:41.783Z,68.07
2019-03-08T09:33:41.806Z,68.21
2019-03-08T09:34:41.769Z,68.59
2019-03-08T09:35:41.760Z,68.21
2019-03-08T09:36:41.756Z,68.51
2019-03-08T09:37:41.761Z,69.57
2019-03-08T09:38:41.773Z,70.60
2019-03-08T09:39:41.717Z,70.67
2019-03-08T09:40:41.703Z,70.60
2019-03-08T09:41:41.699Z,70.70
2019-03-08T09:42:41.683Z,70.08
2019-03-08T09:43:41.683Z,70.60
2019-03-08T09:44:41.661Z,69.64
2019-03-08T09:45:41.669Z,69.67
2019-03-08T09:46:41.638Z,70.05
2019-03-08T09:47:41.643Z,70.56
2019-03-08T09:48:48.208Z,68.82
2019-03-08T09:49:43.109Z,69.64
2019-03-08T09:50:41.597Z,70.46
2019-03-08T09:51:41.589Z,71.52
2019-03-08T09:52:41.579Z,73.06
2019-03-08T09:53:41.605Z,73.68
2019-03-08T09:54:41.591Z,73.06
2019-03-08T09:55:41.686Z,72.78
2019-03-08T09:56:41.538Z,74.32
2019-03-08T09:57:41.526Z,76.07
2019-03-08T09:58:41.514Z,76.51
2019-03-08T09:59:41.523Z,77.65
2019-03-08T10:00:41.558Z,78.81
2019-03-08T10:01:41.479Z,79.84
2019-03-08T10:02:41.471Z,79.63
2019-03-08T10:03:41.459Z,80.19
2019-03-08T10:04:41.457Z,82.18
2019-03-08T10:05:41.475Z,83.62
2019-03-08T10:06:41.425Z,84.07
2019-03-08T10:07:41.419Z,85.34
2019-03-08T10:08:49.675Z,85.96
2019-03-08T10:09:41.395Z,85.75
2019-03-08T10:10:41.407Z,85.96
2019-03-08T10:11:41.375Z,85.92
2019-03-08T10:12:41.368Z,84.79
2019-03-08T10:13:41.361Z,81.91
2019-03-08T10:14:41.354Z,81.56
2019-03-08T10:15:41.364Z,79.71
2019-03-08T10:16:41.329Z,80.63
2019-03-08T10:17:41.302Z,80.33
2019-03-08T10:18:41.301Z,79.61
2019-03-08T10:19:41.285Z,78.96
2019-03-08T10:20:41.296Z,79.05
2019-03-08T10:21:41.307Z,77.62
2019-03-08T10:22:41.298Z,77.10
2019-03-08T10:23:41.242Z,76.69
2019-03-08T10:24:41.235Z,77.00
2019-03-08T10:25:41.220Z,77.51
2019-03-08T10:26:41.296Z,77.27
2019-03-08T10:27:41.218Z,76.97
2019-03-08T10:28:41.211Z,76.93
2019-03-08T10:29:41.184Z,76.07
2019-03-08T10:30:41.174Z,75.04
2019-03-08T10:31:41.195Z,75.04
2019-03-08T10:32:41.148Z,74.12
2019-03-08T10:33:46.406Z,73.61
2019-03-08T10:34:42.149Z,73.81
2019-03-08T10:35:41.119Z,73.40
2019-03-08T10:36:41.134Z,73.19
2019-03-08T10:37:41.107Z,73.10
2019-03-08T10:38:41.092Z,73.98
2019-03-08T10:39:41.078Z,72.61
2019-03-08T10:40:41.087Z,72.82
2019-03-08T10:41:41.078Z,71.48
2019-03-08T10:42:41.048Z,72.03
2019-03-08T10:43:41.044Z,72.41
2019-03-08T10:44:41.023Z,71.59
2019-03-08T10:45:41.060Z,71.80
2019-03-08T10:46:41.023Z,71.59
2019-03-08T10:47:41.018Z,71.76
2019-03-08T10:48:40.975Z,71.39
2019-03-08T10:49:40.966Z,71.28
2019-03-08T10:50:40.966Z,70.97
2019-03-08T10:51:40.949Z,69.95
2019-03-08T10:52:40.963Z,70.87
2019-03-08T10:53:40.924Z,71.48
2019-03-08T10:54:40.942Z,72.03
2019-03-08T10:55:40.916Z,72.34
2019-03-08T10:56:40.905Z,72.58
2019-03-08T10:57:40.914Z,73.74
2019-03-08T10:58:40.880Z,75.80
2019-03-08T10:59:40.859Z,77.37
2019-03-08T11:00:40.855Z,78.85
2019-03-08T11:01:40.840Z,79.88
2019-03-08T11:02:40.858Z,79.75
2019-03-08T11:03:40.817Z,82.97
2019-03-08T11:04:40.845Z,86.00
2019-03-08T11:05:40.838Z,86.49
2019-03-08T11:06:40.866Z,87.32
2019-03-08T11:07:40.845Z,87.42
2019-03-08T11:08:40.777Z,87.63
2019-03-08T11:09:40.766Z,88.59
2019-03-08T11:10:40.747Z,88.49
2019-03-08T11:11:40.732Z,88.90
2019-03-08T11:12:40.754Z,87.46
2019-03-08T11:13:43.444Z,89.01
2019-03-08T11:14:40.737Z,87.71
2019-03-08T11:15:40.702Z,88.53
2019-03-08T11:16:40.696Z,89.77
2019-03-08T11:17:40.699Z,89.83
2019-03-08T11:18:40.719Z,90.28
2019-03-08T11:19:40.704Z,90.19
2019-03-08T11:20:40.669Z,89.36
2019-03-08T11:21:40.642Z,88.53
2019-03-08T11:22:40.654Z,89.15
2019-03-08T11:23:40.621Z,88.95
2019-03-08T11:24:40.634Z,89.25
2019-03-08T11:25:40.623Z,90.49
2019-03-08T11:26:40.575Z,90.25
2019-03-08T11:27:40.566Z,89.05
2019-03-08T11:28:40.565Z,89.11
2019-03-08T11:29:40.584Z,89.62
2019-03-08T11:30:40.538Z,89.52
2019-03-08T11:31:40.542Z,88.59
2019-03-08T11:32:40.555Z,88.59
2019-03-08T11:33:40.521Z,88.80
2019-03-08T11:34:40.570Z,87.93
2019-03-08T11:35:40.485Z,88.39
2019-03-08T11:36:40.486Z,88.70
2019-03-08T11:37:40.473Z,88.49
2019-03-08T11:38:40.509Z,88.56
2019-03-08T11:39:40.589Z,87.66
2019-03-08T11:40:40.531Z,87.26
2019-03-08T11:41:40.452Z,87.11
2019-03-08T11:42:40.427Z,87.11
2019-03-08T11:43:40.579Z,87.42
2019-03-08T11:44:40.432Z,88.76
2019-03-08T11:45:40.445Z,88.51
2019-03-08T11:46:40.562Z,87.48
2019-03-08T11:47:41.146Z,86.31
2019-03-08T11:48:41.226Z,86.16
2019-03-08T11:49:42.449Z,85.16
2019-03-08T11:50:40.389Z,83.00
2019-03-08T11:51:40.373Z,82.93
2019-03-08T11:52:40.320Z,83.70
2019-03-08T11:53:40.427Z,83.55
2019-03-08T11:54:40.963Z,80.42
2019-03-08T11:55:40.312Z,78.87
2019-03-08T11:56:40.284Z,75.73
2019-03-08T11:57:40.247Z,74.43
2019-03-08T11:58:40.364Z,72.75
2019-03-08T11:59:40.244Z,73.20
2019-03-08T12:00:40.336Z,73.13
2019-03-08T12:01:40.358Z,71.73
2019-03-08T12:02:40.238Z,71.53
2019-03-08T12:03:40.189Z,68.74
2019-03-08T12:04:40.851Z,67.96
2019-03-08T12:05:40.185Z,68.16
2019-03-08T12:06:40.203Z,68.20
2019-03-08T12:07:40.314Z,66.39
2019-03-08T12:08:40.260Z,66.63
2019-03-08T12:09:40.288Z,67.11
2019-03-08T12:10:40.128Z,67.05
2019-03-08T12:11:40.160Z,67.04
2019-03-08T12:12:40.184Z,67.41
2019-03-08T12:13:40.081Z,66.91
2019-03-08T12:14:40.115Z,67.01
2019-03-08T12:15:40.091Z,65.95
2019-03-08T12:16:40.076Z,65.83
2019-03-08T12:17:40.062Z,65.83
2019-03-08T12:18:40.058Z,67.76
2019-03-08T12:19:40.063Z,68.98
2019-03-08T12:20:40.018Z,67.82
2019-03-08T12:21:40.027Z,67.21
2019-03-08T12:22:39.990Z,68.30
2019-03-08T12:23:40.034Z,68.33
2019-03-08T12:24:40.841Z,65.80
2019-03-08T12:25:42.052Z,65.86
2019-03-08T12:27:41.346Z,66.27
2019-03-08T12:29:01.026Z,65.99
2019-03-08T12:29:39.983Z,66.50
2019-03-08T12:31:41.113Z,68.77
2019-03-08T12:32:39.880Z,66.41
2019-03-08T12:33:39.862Z,64.99
2019-03-08T12:34:39.894Z,65.31
2019-03-08T12:35:39.898Z,66.50
2019-03-08T12:36:39.872Z,68.91
2019-03-08T12:37:39.909Z,67.93
2019-03-08T12:38:39.845Z,64.31
2019-03-08T12:39:39.822Z,65.97
2019-03-08T12:40:39.799Z,65.65
2019-03-08T12:41:39.784Z,66.50
2019-03-08T12:42:39.786Z,67.56
2019-03-08T12:43:39.762Z,67.22
2019-03-08T12:44:39.779Z,68.27
2019-03-08T12:45:39.772Z,67.46
2019-03-08T12:46:39.733Z,67.66
2019-03-08T12:47:39.743Z,66.98
2019-03-08T12:48:39.724Z,64.64
2019-03-08T12:49:39.720Z,65.14
2019-03-08T12:50:39.680Z,65.36
2019-03-08T12:51:39.688Z,63.45
2019-03-08T12:52:39.676Z,61.09
2019-03-08T12:53:39.654Z,59.10
2019-03-08T12:54:39.684Z,61.18